sensor_id;sensor_type;location;lat;lon;timestamp;P1;durP1;ratioP1;P2;durP2;ratioP2
56045;SDS011;41913;51.030;3.706;2023-04-06T00:00:54;1.17;;;1.17;;
56045;SDS011;41913;51.030;3.706;2023-04-06T00:03:20;0.90;;;0.90;;
56045;SDS011;41913;51.030;3.706;2023-04-06T00:05:47;0.90;;;0.90;;
56045;SDS011;41913;51.030;3.706;2023-04-06T00:08:13;1.13;;;1.13;;
56045;SDS011;41913;51.030;3.706;2023-04-06T00:10:40;0.85;;;0.85;;
56045;SDS011;41913;51.030;3.706;2023-04-06T00:13:09;1.20;;;1.20;;
56045;SDS011;41913;51.030;3.706;2023-04-06T00:15:35;0.90;;;0.90;;
56045;SDS011;41913;51.030;3.706;2023-04-06T00:18:02;1.00;;;1.00;;
56045;SDS011;41913;51.030;3.706;2023-04-06T00:20:28;1.25;;;1.25;;
56045;SDS011;41913;51.030;3.706;2023-04-06T00:22:54;1.10;;;1.10;;
56045;SDS011;41913;51.030;3.706;2023-04-06T00:25:21;1.10;;;1.10;;
56045;SDS011;41913;51.030;3.706;2023-04-06T00:27:47;1.30;;;1.30;;
56045;SDS011;41913;51.030;3.706;2023-04-06T00:30:13;1.10;;;1.10;;
56045;SDS011;41913;51.030;3.706;2023-04-06T00:32:44;0.90;;;0.90;;
56045;SDS011;41913;51.030;3.706;2023-04-06T00:35:13;1.13;;;1.13;;
56045;SDS011;41913;51.030;3.706;2023-04-06T00:37:40;1.48;;;1.35;;
56045;SDS011;41913;51.030;3.706;2023-04-06T00:40:06;1.17;;;1.17;;
56045;SDS011;41913;51.030;3.706;2023-04-06T00:42:33;1.00;;;1.00;;
56045;SDS011;41913;51.030;3.706;2023-04-06T00:45:00;1.05;;;0.90;;
56045;SDS011;41913;51.030;3.706;2023-04-06T00:47:27;1.13;;;1.08;;
56045;SDS011;41913;51.030;3.706;2023-04-06T00:49:53;1.05;;;1.05;;
56045;SDS011;41913;51.030;3.706;2023-04-06T00:52:22;1.10;;;1.10;;
56045;SDS011;41913;51.030;3.706;2023-04-06T00:57:17;1.05;;;1.05;;
56045;SDS011;41913;51.030;3.706;2023-04-06T00:59:43;1.02;;;1.02;;
56045;SDS011;41913;51.030;3.706;2023-04-06T01:02:12;1.10;;;1.10;;
56045;SDS011;41913;51.030;3.706;2023-04-06T01:04:39;1.23;;;1.13;;
56045;SDS011;41913;51.030;3.706;2023-04-06T01:07:05;0.85;;;0.80;;
56045;SDS011;41913;51.030;3.706;2023-04-06T01:09:30;1.45;;;1.35;;
56045;SDS011;41913;51.030;3.706;2023-04-06T01:11:57;1.05;;;1.05;;
56045;SDS011;41913;51.030;3.706;2023-04-06T01:14:23;1.20;;;1.20;;
56045;SDS011;41913;51.030;3.706;2023-04-06T01:16:49;1.13;;;1.13;;
56045;SDS011;41913;51.030;3.706;2023-04-06T01:21:46;1.10;;;1.10;;
56045;SDS011;41913;51.030;3.706;2023-04-06T01:24:20;1.08;;;1.02;;
56045;SDS011;41913;51.030;3.706;2023-04-06T01:26:47;1.20;;;1.20;;
56045;SDS011;41913;51.030;3.706;2023-04-06T01:29:14;1.00;;;1.00;;
56045;SDS011;41913;51.030;3.706;2023-04-06T01:31:42;1.20;;;1.20;;
56045;SDS011;41913;51.030;3.706;2023-04-06T01:34:07;1.05;;;1.05;;
56045;SDS011;41913;51.030;3.706;2023-04-06T01:36:34;1.23;;;1.23;;
56045;SDS011;41913;51.030;3.706;2023-04-06T01:39:02;1.25;;;1.23;;
56045;SDS011;41913;51.030;3.706;2023-04-06T01:41:31;0.98;;;0.90;;
56045;SDS011;41913;51.030;3.706;2023-04-06T01:43:57;0.82;;;0.82;;
56045;SDS011;41913;51.030;3.706;2023-04-06T01:46:23;1.33;;;1.27;;
56045;SDS011;41913;51.030;3.706;2023-04-06T01:48:49;1.02;;;0.98;;
56045;SDS011;41913;51.030;3.706;2023-04-06T01:51:17;0.93;;;0.93;;
56045;SDS011;41913;51.030;3.706;2023-04-06T01:53:46;0.90;;;0.90;;
56045;SDS011;41913;51.030;3.706;2023-04-06T01:58:45;1.25;;;1.25;;
56045;SDS011;41913;51.030;3.706;2023-04-06T02:01:10;1.30;;;1.20;;
56045;SDS011;41913;51.030;3.706;2023-04-06T02:03:36;1.00;;;1.00;;
56045;SDS011;41913;51.030;3.706;2023-04-06T02:08:30;1.15;;;1.15;;
56045;SDS011;41913;51.030;3.706;2023-04-06T02:10:56;1.15;;;1.15;;
56045;SDS011;41913;51.030;3.706;2023-04-06T02:13:22;1.20;;;1.20;;
56045;SDS011;41913;51.030;3.706;2023-04-06T02:18:20;1.40;;;1.40;;
56045;SDS011;41913;51.030;3.706;2023-04-06T02:20:49;1.02;;;1.02;;
56045;SDS011;41913;51.030;3.706;2023-04-06T02:23:15;2.05;;;1.48;;
56045;SDS011;41913;51.030;3.706;2023-04-06T02:28:11;1.35;;;1.35;;
56045;SDS011;41913;51.030;3.706;2023-04-06T02:30:38;1.73;;;1.30;;
56045;SDS011;41913;51.030;3.706;2023-04-06T02:33:05;1.02;;;1.02;;
56045;SDS011;41913;51.030;3.706;2023-04-06T02:35:31;1.70;;;1.60;;
56045;SDS011;41913;51.030;3.706;2023-04-06T02:37:57;1.98;;;1.88;;
56045;SDS011;41913;51.030;3.706;2023-04-06T02:40:25;0.90;;;0.90;;
56045;SDS011;41913;51.030;3.706;2023-04-06T02:42:52;0.93;;;0.93;;
56045;SDS011;41913;51.030;3.706;2023-04-06T02:45:20;1.27;;;1.27;;
56045;SDS011;41913;51.030;3.706;2023-04-06T02:47:45;1.13;;;1.13;;
56045;SDS011;41913;51.030;3.706;2023-04-06T02:50:12;1.30;;;1.30;;
56045;SDS011;41913;51.030;3.706;2023-04-06T02:52:38;1.15;;;1.15;;
56045;SDS011;41913;51.030;3.706;2023-04-06T02:55:04;1.67;;;1.58;;
56045;SDS011;41913;51.030;3.706;2023-04-06T02:57:32;0.93;;;0.93;;
56045;SDS011;41913;51.030;3.706;2023-04-06T02:59:58;1.17;;;1.08;;
56045;SDS011;41913;51.030;3.706;2023-04-06T03:02:23;1.30;;;1.30;;
56045;SDS011;41913;51.030;3.706;2023-04-06T03:04:50;1.00;;;1.00;;
56045;SDS011;41913;51.030;3.706;2023-04-06T03:07:15;1.15;;;1.15;;
56045;SDS011;41913;51.030;3.706;2023-04-06T03:09:41;1.15;;;1.15;;
56045;SDS011;41913;51.030;3.706;2023-04-06T03:12:10;1.63;;;1.52;;
56045;SDS011;41913;51.030;3.706;2023-04-06T03:14:35;1.45;;;1.35;;
56045;SDS011;41913;51.030;3.706;2023-04-06T03:17:01;1.75;;;1.65;;
56045;SDS011;41913;51.030;3.706;2023-04-06T03:19:27;1.10;;;1.10;;
56045;SDS011;41913;51.030;3.706;2023-04-06T03:21:53;1.38;;;1.33;;
56045;SDS011;41913;51.030;3.706;2023-04-06T03:24:19;1.10;;;1.10;;
56045;SDS011;41913;51.030;3.706;2023-04-06T03:26:45;1.52;;;1.42;;
56045;SDS011;41913;51.030;3.706;2023-04-06T03:29:11;1.23;;;1.23;;
56045;SDS011;41913;51.030;3.706;2023-04-06T03:31:37;1.70;;;1.60;;
56045;SDS011;41913;51.030;3.706;2023-04-06T03:34:06;1.40;;;1.10;;
56045;SDS011;41913;51.030;3.706;2023-04-06T03:36:31;1.35;;;1.35;;
56045;SDS011;41913;51.030;3.706;2023-04-06T03:38:58;1.13;;;1.10;;
56045;SDS011;41913;51.030;3.706;2023-04-06T03:43:55;1.30;;;1.25;;
56045;SDS011;41913;51.030;3.706;2023-04-06T03:46:21;1.52;;;1.42;;
56045;SDS011;41913;51.030;3.706;2023-04-06T03:48:48;1.60;;;1.50;;
56045;SDS011;41913;51.030;3.706;2023-04-06T03:51:17;1.90;;;1.80;;
56045;SDS011;41913;51.030;3.706;2023-04-06T03:56:14;1.42;;;1.42;;
56045;SDS011;41913;51.030;3.706;2023-04-06T03:58:40;1.80;;;1.70;;
56045;SDS011;41913;51.030;3.706;2023-04-06T04:01:08;1.20;;;1.20;;
56045;SDS011;41913;51.030;3.706;2023-04-06T04:06:02;2.00;;;1.90;;
56045;SDS011;41913;51.030;3.706;2023-04-06T04:08:28;1.85;;;1.75;;
56045;SDS011;41913;51.030;3.706;2023-04-06T04:10:54;1.23;;;1.20;;
56045;SDS011;41913;51.030;3.706;2023-04-06T04:13:20;1.63;;;1.63;;
56045;SDS011;41913;51.030;3.706;2023-04-06T04:15:45;1.80;;;1.70;;
56045;SDS011;41913;51.030;3.706;2023-04-06T04:18:12;1.48;;;1.45;;
56045;SDS011;41913;51.030;3.706;2023-04-06T04:20:39;1.27;;;1.27;;
56045;SDS011;41913;51.030;3.706;2023-04-06T04:23:06;1.50;;;1.50;;
56045;SDS011;41913;51.030;3.706;2023-04-06T04:25:32;2.45;;;1.50;;
56045;SDS011;41913;51.030;3.706;2023-04-06T04:27:59;1.40;;;1.40;;
56045;SDS011;41913;51.030;3.706;2023-04-06T04:30:27;1.50;;;1.50;;
56045;SDS011;41913;51.030;3.706;2023-04-06T04:32:53;2.05;;;1.95;;
56045;SDS011;41913;51.030;3.706;2023-04-06T04:35:19;1.35;;;1.35;;
56045;SDS011;41913;51.030;3.706;2023-04-06T04:37:45;1.52;;;1.52;;
56045;SDS011;41913;51.030;3.706;2023-04-06T04:40:11;1.73;;;1.63;;
56045;SDS011;41913;51.030;3.706;2023-04-06T04:42:37;1.67;;;1.58;;
56045;SDS011;41913;51.030;3.706;2023-04-06T04:47:32;1.30;;;1.30;;
56045;SDS011;41913;51.030;3.706;2023-04-06T04:49:57;1.70;;;1.60;;
56045;SDS011;41913;51.030;3.706;2023-04-06T04:52:25;1.90;;;1.55;;
56045;SDS011;41913;51.030;3.706;2023-04-06T04:54:51;1.65;;;1.55;;
56045;SDS011;41913;51.030;3.706;2023-04-06T04:57:16;1.38;;;1.38;;
56045;SDS011;41913;51.030;3.706;2023-04-06T04:59:42;1.80;;;1.70;;
56045;SDS011;41913;51.030;3.706;2023-04-06T05:02:08;1.80;;;1.70;;
56045;SDS011;41913;51.030;3.706;2023-04-06T05:04:36;2.30;;;2.17;;
56045;SDS011;41913;51.030;3.706;2023-04-06T05:09:35;1.63;;;1.35;;
56045;SDS011;41913;51.030;3.706;2023-04-06T05:14:30;2.10;;;2.00;;
56045;SDS011;41913;51.030;3.706;2023-04-06T05:16:55;1.80;;;1.70;;
56045;SDS011;41913;51.030;3.706;2023-04-06T05:19:21;2.00;;;1.90;;
56045;SDS011;41913;51.030;3.706;2023-04-06T05:21:47;1.40;;;1.40;;
56045;SDS011;41913;51.030;3.706;2023-04-06T05:24:13;2.08;;;1.98;;
56045;SDS011;41913;51.030;3.706;2023-04-06T05:26:40;1.98;;;1.88;;
56045;SDS011;41913;51.030;3.706;2023-04-06T05:29:06;1.75;;;1.65;;
56045;SDS011;41913;51.030;3.706;2023-04-06T05:31:32;1.67;;;1.58;;
56045;SDS011;41913;51.030;3.706;2023-04-06T05:38:58;1.58;;;1.50;;
56045;SDS011;41913;51.030;3.706;2023-04-06T05:41:27;1.20;;;1.20;;
56045;SDS011;41913;51.030;3.706;2023-04-06T05:43:58;1.60;;;1.50;;
56045;SDS011;41913;51.030;3.706;2023-04-06T05:48:52;1.92;;;1.42;;
56045;SDS011;41913;51.030;3.706;2023-04-06T05:51:18;1.35;;;1.35;;
56045;SDS011;41913;51.030;3.706;2023-04-06T05:53:44;1.08;;;1.00;;
56045;SDS011;41913;51.030;3.706;2023-04-06T05:56:10;1.60;;;1.48;;
56045;SDS011;41913;51.030;3.706;2023-04-06T05:58:38;1.45;;;1.40;;
56045;SDS011;41913;51.030;3.706;2023-04-06T06:01:04;1.50;;;1.50;;
56045;SDS011;41913;51.030;3.706;2023-04-06T06:03:30;1.40;;;1.30;;
56045;SDS011;41913;51.030;3.706;2023-04-06T06:06:03;1.25;;;1.25;;
56045;SDS011;41913;51.030;3.706;2023-04-06T06:08:29;1.00;;;1.00;;
56045;SDS011;41913;51.030;3.706;2023-04-06T06:10:55;1.48;;;1.38;;
56045;SDS011;41913;51.030;3.706;2023-04-06T06:13:22;1.52;;;1.42;;
56045;SDS011;41913;51.030;3.706;2023-04-06T06:15:49;1.60;;;1.58;;
56045;SDS011;41913;51.030;3.706;2023-04-06T06:18:15;2.15;;;1.95;;
56045;SDS011;41913;51.030;3.706;2023-04-06T06:20:44;1.27;;;1.27;;
56045;SDS011;41913;51.030;3.706;2023-04-06T06:23:12;1.20;;;1.20;;
56045;SDS011;41913;51.030;3.706;2023-04-06T06:25:38;1.70;;;1.60;;
56045;SDS011;41913;51.030;3.706;2023-04-06T06:30:35;1.48;;;1.40;;
56045;SDS011;41913;51.030;3.706;2023-04-06T06:33:03;1.55;;;1.55;;
56045;SDS011;41913;51.030;3.706;2023-04-06T06:35:28;1.45;;;1.42;;
56045;SDS011;41913;51.030;3.706;2023-04-06T06:37:54;1.27;;;1.27;;
56045;SDS011;41913;51.030;3.706;2023-04-06T06:40:20;1.25;;;1.20;;
56045;SDS011;41913;51.030;3.706;2023-04-06T06:42:50;1.15;;;1.15;;
56045;SDS011;41913;51.030;3.706;2023-04-06T06:45:17;1.27;;;1.27;;
56045;SDS011;41913;51.030;3.706;2023-04-06T06:47:43;1.05;;;1.05;;
56045;SDS011;41913;51.030;3.706;2023-04-06T06:50:12;1.20;;;1.20;;
56045;SDS011;41913;51.030;3.706;2023-04-06T06:52:37;1.33;;;1.33;;
56045;SDS011;41913;51.030;3.706;2023-04-06T06:55:04;1.27;;;1.27;;
56045;SDS011;41913;51.030;3.706;2023-04-06T07:00:02;1.85;;;1.75;;
56045;SDS011;41913;51.030;3.706;2023-04-06T07:02:30;1.17;;;1.17;;
56045;SDS011;41913;51.030;3.706;2023-04-06T07:04:56;1.33;;;1.30;;
56045;SDS011;41913;51.030;3.706;2023-04-06T07:07:23;1.33;;;1.33;;
56045;SDS011;41913;51.030;3.706;2023-04-06T07:09:50;1.10;;;1.10;;
56045;SDS011;41913;51.030;3.706;2023-04-06T07:12:16;1.10;;;1.08;;
56045;SDS011;41913;51.030;3.706;2023-04-06T07:17:12;1.13;;;1.13;;
56045;SDS011;41913;51.030;3.706;2023-04-06T07:19:39;0.90;;;0.90;;
56045;SDS011;41913;51.030;3.706;2023-04-06T07:22:08;1.23;;;1.20;;
56045;SDS011;41913;51.030;3.706;2023-04-06T07:24:36;0.95;;;0.95;;
56045;SDS011;41913;51.030;3.706;2023-04-06T07:27:02;0.73;;;0.73;;
56045;SDS011;41913;51.030;3.706;2023-04-06T07:29:27;2.17;;;0.98;;
56045;SDS011;41913;51.030;3.706;2023-04-06T07:31:55;0.95;;;0.95;;
56045;SDS011;41913;51.030;3.706;2023-04-06T07:34:22;1.20;;;1.20;;
56045;SDS011;41913;51.030;3.706;2023-04-06T07:36:48;1.00;;;1.00;;
56045;SDS011;41913;51.030;3.706;2023-04-06T07:39:14;1.20;;;1.20;;
56045;SDS011;41913;51.030;3.706;2023-04-06T07:41:41;0.93;;;0.93;;
56045;SDS011;41913;51.030;3.706;2023-04-06T07:44:07;1.00;;;0.93;;
56045;SDS011;41913;51.030;3.706;2023-04-06T07:46:36;0.70;;;0.70;;
56045;SDS011;41913;51.030;3.706;2023-04-06T07:49:02;0.88;;;0.88;;
56045;SDS011;41913;51.030;3.706;2023-04-06T07:51:28;0.82;;;0.82;;
56045;SDS011;41913;51.030;3.706;2023-04-06T07:53:55;1.05;;;1.05;;
56045;SDS011;41913;51.030;3.706;2023-04-06T07:56:21;0.80;;;0.80;;
56045;SDS011;41913;51.030;3.706;2023-04-06T07:58:49;0.98;;;0.98;;
56045;SDS011;41913;51.030;3.706;2023-04-06T08:01:17;0.55;;;0.55;;
56045;SDS011;41913;51.030;3.706;2023-04-06T08:03:45;0.60;;;0.60;;
56045;SDS011;41913;51.030;3.706;2023-04-06T08:06:12;0.90;;;0.90;;
56045;SDS011;41913;51.030;3.706;2023-04-06T08:08:38;0.90;;;0.90;;
56045;SDS011;41913;51.030;3.706;2023-04-06T08:11:03;0.80;;;0.80;;
56045;SDS011;41913;51.030;3.706;2023-04-06T08:13:29;0.95;;;0.95;;
56045;SDS011;41913;51.030;3.706;2023-04-06T08:15:55;1.38;;;1.27;;
56045;SDS011;41913;51.030;3.706;2023-04-06T08:18:21;1.10;;;1.10;;
56045;SDS011;41913;51.030;3.706;2023-04-06T08:20:47;1.38;;;0.80;;
56045;SDS011;41913;51.030;3.706;2023-04-06T08:23:14;0.95;;;0.95;;
56045;SDS011;41913;51.030;3.706;2023-04-06T08:25:40;0.77;;;0.77;;
56045;SDS011;41913;51.030;3.706;2023-04-06T08:28:07;0.63;;;0.63;;
56045;SDS011;41913;51.030;3.706;2023-04-06T08:30:34;1.00;;;1.00;;
56045;SDS011;41913;51.030;3.706;2023-04-06T08:33:00;1.25;;;1.15;;
56045;SDS011;41913;51.030;3.706;2023-04-06T08:35:27;0.80;;;0.80;;
56045;SDS011;41913;51.030;3.706;2023-04-06T08:37:53;0.85;;;0.85;;
56045;SDS011;41913;51.030;3.706;2023-04-06T08:40:21;0.80;;;0.80;;
56045;SDS011;41913;51.030;3.706;2023-04-06T08:42:52;0.57;;;0.57;;
56045;SDS011;41913;51.030;3.706;2023-04-06T08:45:22;0.90;;;0.90;;
56045;SDS011;41913;51.030;3.706;2023-04-06T08:47:51;0.70;;;0.70;;
56045;SDS011;41913;51.030;3.706;2023-04-06T08:50:17;0.77;;;0.77;;
56045;SDS011;41913;51.030;3.706;2023-04-06T08:52:46;0.77;;;0.77;;
56045;SDS011;41913;51.030;3.706;2023-04-06T08:57:45;0.68;;;0.68;;
56045;SDS011;41913;51.030;3.706;2023-04-06T09:00:12;0.75;;;0.75;;
56045;SDS011;41913;51.030;3.706;2023-04-06T09:02:45;0.63;;;0.63;;
56045;SDS011;41913;51.030;3.706;2023-04-06T09:05:13;0.82;;;0.82;;
56045;SDS011;41913;51.030;3.706;2023-04-06T09:07:44;0.88;;;0.88;;
56045;SDS011;41913;51.030;3.706;2023-04-06T09:10:12;0.73;;;0.73;;
56045;SDS011;41913;51.030;3.706;2023-04-06T09:15:07;1.10;;;1.10;;
56045;SDS011;41913;51.030;3.706;2023-04-06T09:17:48;0.73;;;0.73;;
56045;SDS011;41913;51.030;3.706;2023-04-06T09:22:47;0.75;;;0.75;;
56045;SDS011;41913;51.030;3.706;2023-04-06T09:25:21;0.70;;;0.70;;
56045;SDS011;41913;51.030;3.706;2023-04-06T09:28:02;0.60;;;0.60;;
56045;SDS011;41913;51.030;3.706;2023-04-06T09:30:29;0.88;;;0.88;;
56045;SDS011;41913;51.030;3.706;2023-04-06T09:32:58;0.60;;;0.60;;
56045;SDS011;41913;51.030;3.706;2023-04-06T09:35:25;1.15;;;1.10;;
56045;SDS011;41913;51.030;3.706;2023-04-06T09:37:52;0.73;;;0.73;;
56045;SDS011;41913;51.030;3.706;2023-04-06T09:40:18;0.68;;;0.68;;
56045;SDS011;41913;51.030;3.706;2023-04-06T09:42:47;0.70;;;0.70;;
56045;SDS011;41913;51.030;3.706;2023-04-06T09:45:13;1.05;;;0.68;;
56045;SDS011;41913;51.030;3.706;2023-04-06T09:47:43;0.65;;;0.65;;
56045;SDS011;41913;51.030;3.706;2023-04-06T09:50:12;0.80;;;0.80;;
56045;SDS011;41913;51.030;3.706;2023-04-06T09:52:46;0.60;;;0.60;;
56045;SDS011;41913;51.030;3.706;2023-04-06T09:55:30;0.70;;;0.70;;
56045;SDS011;41913;51.030;3.706;2023-04-06T09:58:12;0.80;;;0.80;;
56045;SDS011;41913;51.030;3.706;2023-04-06T10:00:43;0.70;;;0.70;;
56045;SDS011;41913;51.030;3.706;2023-04-06T10:03:31;0.63;;;0.63;;
56045;SDS011;41913;51.030;3.706;2023-04-06T10:06:20;0.70;;;0.70;;
56045;SDS011;41913;51.030;3.706;2023-04-06T10:08:51;0.50;;;0.50;;
56045;SDS011;41913;51.030;3.706;2023-04-06T10:11:20;0.70;;;0.70;;
56045;SDS011;41913;51.030;3.706;2023-04-06T10:13:47;0.75;;;0.75;;
56045;SDS011;41913;51.030;3.706;2023-04-06T10:16:15;0.70;;;0.70;;
56045;SDS011;41913;51.030;3.706;2023-04-06T10:23:53;0.55;;;0.50;;
56045;SDS011;41913;51.030;3.706;2023-04-06T10:26:24;0.82;;;0.82;;
56045;SDS011;41913;51.030;3.706;2023-04-06T10:28:54;0.50;;;0.50;;
56045;SDS011;41913;51.030;3.706;2023-04-06T10:31:24;0.68;;;0.68;;
56045;SDS011;41913;51.030;3.706;2023-04-06T10:33:55;0.60;;;0.60;;
56045;SDS011;41913;51.030;3.706;2023-04-06T10:36:22;0.40;;;0.40;;
56045;SDS011;41913;51.030;3.706;2023-04-06T10:39:03;0.77;;;0.77;;
56045;SDS011;41913;51.030;3.706;2023-04-06T10:41:47;0.65;;;0.65;;
56045;SDS011;41913;51.030;3.706;2023-04-06T10:44:20;0.90;;;0.90;;
56045;SDS011;41913;51.030;3.706;2023-04-06T10:46:56;0.60;;;0.60;;
56045;SDS011;41913;51.030;3.706;2023-04-06T10:49:26;0.55;;;0.55;;
56045;SDS011;41913;51.030;3.706;2023-04-06T10:51:55;0.70;;;0.70;;
56045;SDS011;41913;51.030;3.706;2023-04-06T10:54:25;0.52;;;0.50;;
56045;SDS011;41913;51.030;3.706;2023-04-06T10:56:53;0.50;;;0.50;;
56045;SDS011;41913;51.030;3.706;2023-04-06T10:59:21;0.50;;;0.50;;
56045;SDS011;41913;51.030;3.706;2023-04-06T11:01:48;0.52;;;0.52;;
56045;SDS011;41913;51.030;3.706;2023-04-06T11:04:17;0.50;;;0.50;;
56045;SDS011;41913;51.030;3.706;2023-04-06T11:06:48;0.80;;;0.80;;
56045;SDS011;41913;51.030;3.706;2023-04-06T11:09:27;0.60;;;0.60;;
56045;SDS011;41913;51.030;3.706;2023-04-06T11:11:57;2.50;;;0.57;;
56045;SDS011;41913;51.030;3.706;2023-04-06T11:14:24;0.45;;;0.45;;
56045;SDS011;41913;51.030;3.706;2023-04-06T11:16:54;0.40;;;0.40;;
56045;SDS011;41913;51.030;3.706;2023-04-06T11:19:20;0.68;;;0.68;;
56045;SDS011;41913;51.030;3.706;2023-04-06T11:21:47;0.63;;;0.63;;
56045;SDS011;41913;51.030;3.706;2023-04-06T11:29:33;0.60;;;0.60;;
56045;SDS011;41913;51.030;3.706;2023-04-06T11:34:36;0.50;;;0.50;;
56045;SDS011;41913;51.030;3.706;2023-04-06T11:37:06;0.50;;;0.50;;
56045;SDS011;41913;51.030;3.706;2023-04-06T11:39:40;0.50;;;0.50;;
56045;SDS011;41913;51.030;3.706;2023-04-06T11:44:59;0.30;;;0.30;;
56045;SDS011;41913;51.030;3.706;2023-04-06T11:47:29;0.75;;;0.50;;
56045;SDS011;41913;51.030;3.706;2023-04-06T11:50:05;0.43;;;0.43;;
56045;SDS011;41913;51.030;3.706;2023-04-06T11:52:38;0.40;;;0.40;;
56045;SDS011;41913;51.030;3.706;2023-04-06T11:55:14;0.52;;;0.52;;
56045;SDS011;41913;51.030;3.706;2023-04-06T11:57:42;0.40;;;0.40;;
56045;SDS011;41913;51.030;3.706;2023-04-06T12:00:08;0.60;;;0.60;;
56045;SDS011;41913;51.030;3.706;2023-04-06T12:02:39;0.38;;;0.38;;
56045;SDS011;41913;51.030;3.706;2023-04-06T12:05:07;0.50;;;0.50;;
56045;SDS011;41913;51.030;3.706;2023-04-06T12:07:36;0.40;;;0.40;;
56045;SDS011;41913;51.030;3.706;2023-04-06T12:12:32;0.70;;;0.70;;
56045;SDS011;41913;51.030;3.706;2023-04-06T12:14:57;0.50;;;0.50;;
56045;SDS011;41913;51.030;3.706;2023-04-06T12:17:25;0.40;;;0.40;;
56045;SDS011;41913;51.030;3.706;2023-04-06T12:19:53;0.50;;;0.50;;
56045;SDS011;41913;51.030;3.706;2023-04-06T12:22:20;0.45;;;0.45;;
56045;SDS011;41913;51.030;3.706;2023-04-06T12:24:49;0.40;;;0.40;;
56045;SDS011;41913;51.030;3.706;2023-04-06T12:27:14;0.60;;;0.60;;
56045;SDS011;41913;51.030;3.706;2023-04-06T12:29:41;0.45;;;0.43;;
56045;SDS011;41913;51.030;3.706;2023-04-06T12:34:37;0.45;;;0.45;;
56045;SDS011;41913;51.030;3.706;2023-04-06T12:37:05;0.25;;;0.25;;
56045;SDS011;41913;51.030;3.706;2023-04-06T12:39:31;0.57;;;0.57;;
56045;SDS011;41913;51.030;3.706;2023-04-06T12:41:58;0.63;;;0.63;;
56045;SDS011;41913;51.030;3.706;2023-04-06T12:46:52;0.60;;;0.60;;
56045;SDS011;41913;51.030;3.706;2023-04-06T12:49:19;0.50;;;0.50;;
56045;SDS011;41913;51.030;3.706;2023-04-06T12:51:45;0.40;;;0.40;;
56045;SDS011;41913;51.030;3.706;2023-04-06T12:54:12;0.47;;;0.47;;
56045;SDS011;41913;51.030;3.706;2023-04-06T12:56:38;0.50;;;0.50;;
56045;SDS011;41913;51.030;3.706;2023-04-06T12:59:03;0.47;;;0.47;;
56045;SDS011;41913;51.030;3.706;2023-04-06T13:01:30;0.50;;;0.50;;
56045;SDS011;41913;51.030;3.706;2023-04-06T13:03:56;0.30;;;0.30;;
56045;SDS011;41913;51.030;3.706;2023-04-06T13:06:22;0.60;;;0.60;;
56045;SDS011;41913;51.030;3.706;2023-04-06T13:08:52;0.47;;;0.45;;
56045;SDS011;41913;51.030;3.706;2023-04-06T13:11:17;0.52;;;0.52;;
56045;SDS011;41913;51.030;3.706;2023-04-06T13:13:43;0.40;;;0.40;;
56045;SDS011;41913;51.030;3.706;2023-04-06T13:16:11;0.50;;;0.50;;
56045;SDS011;41913;51.030;3.706;2023-04-06T13:18:38;0.60;;;0.60;;
56045;SDS011;41913;51.030;3.706;2023-04-06T13:21:05;0.30;;;0.30;;
56045;SDS011;41913;51.030;3.706;2023-04-06T13:23:37;0.50;;;0.50;;
56045;SDS011;41913;51.030;3.706;2023-04-06T13:26:05;0.73;;;0.73;;
56045;SDS011;41913;51.030;3.706;2023-04-06T13:28:35;0.65;;;0.55;;
56045;SDS011;41913;51.030;3.706;2023-04-06T13:31:04;0.50;;;0.50;;
56045;SDS011;41913;51.030;3.706;2023-04-06T13:33:33;0.40;;;0.40;;
56045;SDS011;41913;51.030;3.706;2023-04-06T13:35:59;0.60;;;0.60;;
56045;SDS011;41913;51.030;3.706;2023-04-06T13:38:27;0.50;;;0.50;;
56045;SDS011;41913;51.030;3.706;2023-04-06T13:43:25;0.57;;;0.57;;
56045;SDS011;41913;51.030;3.706;2023-04-06T13:45:52;0.50;;;0.50;;
56045;SDS011;41913;51.030;3.706;2023-04-06T13:48:23;0.60;;;0.60;;
56045;SDS011;41913;51.030;3.706;2023-04-06T13:55:55;0.40;;;0.40;;
56045;SDS011;41913;51.030;3.706;2023-04-06T13:58:32;0.40;;;0.40;;
56045;SDS011;41913;51.030;3.706;2023-04-06T14:01:02;0.57;;;0.57;;
56045;SDS011;41913;51.030;3.706;2023-04-06T14:03:29;0.50;;;0.50;;
56045;SDS011;41913;51.030;3.706;2023-04-06T14:08:37;0.52;;;0.52;;
56045;SDS011;41913;51.030;3.706;2023-04-06T14:11:03;0.45;;;0.45;;
56045;SDS011;41913;51.030;3.706;2023-04-06T14:13:29;0.47;;;0.47;;
56045;SDS011;41913;51.030;3.706;2023-04-06T14:15:58;0.70;;;0.70;;
56045;SDS011;41913;51.030;3.706;2023-04-06T14:18:24;0.75;;;0.75;;
56045;SDS011;41913;51.030;3.706;2023-04-06T14:20:54;0.52;;;0.52;;
56045;SDS011;41913;51.030;3.706;2023-04-06T14:23:22;0.50;;;0.50;;
56045;SDS011;41913;51.030;3.706;2023-04-06T14:25:47;0.47;;;0.47;;
56045;SDS011;41913;51.030;3.706;2023-04-06T14:28:13;0.68;;;0.68;;
56045;SDS011;41913;51.030;3.706;2023-04-06T14:30:39;0.60;;;0.60;;
56045;SDS011;41913;51.030;3.706;2023-04-06T14:33:06;0.60;;;0.60;;
56045;SDS011;41913;51.030;3.706;2023-04-06T14:35:37;0.30;;;0.30;;
56045;SDS011;41913;51.030;3.706;2023-04-06T14:38:04;0.43;;;0.43;;
56045;SDS011;41913;51.030;3.706;2023-04-06T14:40:34;0.90;;;0.45;;
56045;SDS011;41913;51.030;3.706;2023-04-06T14:43:01;0.60;;;0.60;;
56045;SDS011;41913;51.030;3.706;2023-04-06T14:45:26;0.60;;;0.60;;
56045;SDS011;41913;51.030;3.706;2023-04-06T14:47:55;0.50;;;0.50;;
56045;SDS011;41913;51.030;3.706;2023-04-06T14:50:20;0.60;;;0.60;;
56045;SDS011;41913;51.030;3.706;2023-04-06T14:55:16;0.40;;;0.40;;
56045;SDS011;41913;51.030;3.706;2023-04-06T14:57:42;0.47;;;0.47;;
56045;SDS011;41913;51.030;3.706;2023-04-06T15:02:37;0.60;;;0.60;;
56045;SDS011;41913;51.030;3.706;2023-04-06T15:05:04;0.52;;;0.52;;
56045;SDS011;41913;51.030;3.706;2023-04-06T15:07:31;0.50;;;0.50;;
56045;SDS011;41913;51.030;3.706;2023-04-06T15:09:57;0.55;;;0.55;;
56045;SDS011;41913;51.030;3.706;2023-04-06T15:12:23;0.60;;;0.60;;
56045;SDS011;41913;51.030;3.706;2023-04-06T15:14:49;0.65;;;0.60;;
56045;SDS011;41913;51.030;3.706;2023-04-06T15:19:43;0.47;;;0.47;;
56045;SDS011;41913;51.030;3.706;2023-04-06T15:22:09;0.50;;;0.50;;
56045;SDS011;41913;51.030;3.706;2023-04-06T15:24:36;0.35;;;0.35;;
56045;SDS011;41913;51.030;3.706;2023-04-06T15:27:03;0.52;;;0.52;;
56045;SDS011;41913;51.030;3.706;2023-04-06T15:29:30;0.45;;;0.45;;
56045;SDS011;41913;51.030;3.706;2023-04-06T15:31:57;0.50;;;0.50;;
56045;SDS011;41913;51.030;3.706;2023-04-06T15:34:25;0.70;;;0.70;;
56045;SDS011;41913;51.030;3.706;2023-04-06T15:36:55;0.60;;;0.60;;
56045;SDS011;41913;51.030;3.706;2023-04-06T15:39:23;1.10;;;0.70;;
56045;SDS011;41913;51.030;3.706;2023-04-06T15:41:52;0.60;;;0.60;;
56045;SDS011;41913;51.030;3.706;2023-04-06T15:44:25;0.32;;;0.32;;
56045;SDS011;41913;51.030;3.706;2023-04-06T15:46:51;0.50;;;0.50;;
56045;SDS011;41913;51.030;3.706;2023-04-06T15:49:22;0.57;;;0.57;;
56045;SDS011;41913;51.030;3.706;2023-04-06T15:51:48;0.65;;;0.65;;
56045;SDS011;41913;51.030;3.706;2023-04-06T15:54:15;0.30;;;0.30;;
56045;SDS011;41913;51.030;3.706;2023-04-06T15:56:44;0.60;;;0.60;;
56045;SDS011;41913;51.030;3.706;2023-04-06T15:59:10;0.90;;;0.50;;
56045;SDS011;41913;51.030;3.706;2023-04-06T16:01:37;0.40;;;0.40;;
56045;SDS011;41913;51.030;3.706;2023-04-06T16:04:05;0.65;;;0.65;;
56045;SDS011;41913;51.030;3.706;2023-04-06T16:06:33;0.93;;;0.70;;
56045;SDS011;41913;51.030;3.706;2023-04-06T16:08:59;0.50;;;0.50;;
56045;SDS011;41913;51.030;3.706;2023-04-06T16:13:56;0.68;;;0.40;;
56045;SDS011;41913;51.030;3.706;2023-04-06T16:16:28;0.68;;;0.68;;
56045;SDS011;41913;51.030;3.706;2023-04-06T16:18:53;0.65;;;0.60;;
56045;SDS011;41913;51.030;3.706;2023-04-06T16:23:48;0.50;;;0.50;;
56045;SDS011;41913;51.030;3.706;2023-04-06T16:28:43;0.52;;;0.50;;
56045;SDS011;41913;51.030;3.706;2023-04-06T16:31:16;0.52;;;0.52;;